createdAt,value
2022-09-06T00:00:11.694Z,1.73
2022-09-06T00:02:38.697Z,1.73
2022-09-06T00:05:08.072Z,2.20
2022-09-06T00:07:34.916Z,1.63
2022-09-06T00:10:01.702Z,2.17
2022-09-06T00:12:28.577Z,2.20
2022-09-06T00:14:55.344Z,2.30
2022-09-06T00:17:22.232Z,2.00
2022-09-06T00:19:51.531Z,2.07
2022-09-06T00:22:18.319Z,1.87
2022-09-06T00:24:45.077Z,2.30
2022-09-06T00:27:11.801Z,1.87
2022-09-06T00:29:38.538Z,2.57
2022-09-06T00:32:05.476Z,2.13
2022-09-06T00:34:34.721Z,1.90
2022-09-06T00:37:01.472Z,2.37
2022-09-06T00:39:30.833Z,2.20
2022-09-06T00:41:57.708Z,2.10
2022-09-06T00:44:24.628Z,1.80
2022-09-06T00:46:51.866Z,1.77
2022-09-06T00:49:28.176Z,1.93
2022-09-06T00:52:01.450Z,2.10
2022-09-06T00:54:28.213Z,1.93
2022-09-06T00:56:57.146Z,1.87
2022-09-06T00:59:25.684Z,1.80
2022-09-06T01:01:55.080Z,1.70
2022-09-06T01:04:21.905Z,2.00
2022-09-06T01:06:54.985Z,1.83
2022-09-06T01:09:34.106Z,1.53
2022-09-06T01:12:13.699Z,1.43
2022-09-06T01:15:00.680Z,1.70
2022-09-06T01:17:39.663Z,1.50
2022-09-06T01:20:41.796Z,1.80
2022-09-06T01:23:08.551Z,1.37
2022-09-06T01:25:41.105Z,2.03
2022-09-06T01:28:29.279Z,1.80
2022-09-06T01:31:31.428Z,1.83
2022-09-06T01:34:06.341Z,1.80
2022-09-06T01:37:08.439Z,1.67
2022-09-06T01:39:34.904Z,1.60
2022-09-06T01:42:16.593Z,2.43
2022-09-06T01:44:46.236Z,1.50
2022-09-06T01:47:28.002Z,1.97
2022-09-06T01:49:57.551Z,1.73
2022-09-06T01:52:39.439Z,1.67
2022-09-06T01:55:35.547Z,1.80
2022-09-06T01:58:12.391Z,1.90
2022-09-06T02:00:50.779Z,1.70
2022-09-06T02:03:25.075Z,1.97
2022-09-06T02:05:56.024Z,1.90
2022-09-06T02:08:29.478Z,2.10
2022-09-06T02:11:03.832Z,2.00
2022-09-06T02:13:38.429Z,1.87
2022-09-06T02:16:06.727Z,1.90
2022-09-06T02:18:54.789Z,1.90
2022-09-06T02:21:24.485Z,1.60
2022-09-06T02:23:53.784Z,1.80
2022-09-06T02:26:23.260Z,2.10
2022-09-06T02:28:52.135Z,2.20
2022-09-06T02:31:23.104Z,1.93
2022-09-06T02:33:50.763Z,1.80
2022-09-06T02:36:21.035Z,2.30
2022-09-06T02:38:50.663Z,1.50
2022-09-06T02:41:21.108Z,1.90
2022-09-06T02:43:48.226Z,1.67
2022-09-06T02:46:17.479Z,1.90
2022-09-06T02:48:44.301Z,2.20
2022-09-06T02:51:11.085Z,1.90
2022-09-06T02:53:37.929Z,1.90
2022-09-06T02:56:04.938Z,2.27
2022-09-06T02:58:31.755Z,1.80
2022-09-06T03:00:59.026Z,2.20
2022-09-06T03:03:28.099Z,2.30
2022-09-06T03:05:54.917Z,1.90
2022-09-06T03:08:26.440Z,2.00
2022-09-06T03:10:54.437Z,1.90
2022-09-06T03:13:21.647Z,1.87
2022-09-06T03:15:57.937Z,1.80
2022-09-06T03:18:28.041Z,1.60
2022-09-06T03:20:55.068Z,2.17
2022-09-06T03:23:25.750Z,1.90
2022-09-06T03:25:54.928Z,1.93
2022-09-06T03:28:23.843Z,1.90
2022-09-06T03:30:51.583Z,1.80
2022-09-06T03:33:18.941Z,2.33
2022-09-06T03:35:53.819Z,2.10
2022-09-06T03:38:20.604Z,2.20
2022-09-06T03:40:50.497Z,2.00
2022-09-06T03:43:17.865Z,1.90
2022-09-06T03:45:48.497Z,2.40
2022-09-06T03:48:18.409Z,2.63
2022-09-06T03:50:49.091Z,2.03
2022-09-06T03:53:16.261Z,2.37
2022-09-06T03:55:46.983Z,2.03
2022-09-06T03:58:13.797Z,2.40
2022-09-06T04:00:40.938Z,2.13
2022-09-06T04:03:09.873Z,1.93
2022-09-06T04:05:36.745Z,1.93
2022-09-06T04:08:03.505Z,2.10
2022-09-06T04:10:35.245Z,2.00
2022-09-06T04:13:02.027Z,1.80
2022-09-06T04:15:30.918Z,2.23
2022-09-06T04:18:04.991Z,1.93
2022-09-06T04:20:35.417Z,1.90
2022-09-06T04:23:02.176Z,1.97
2022-09-06T04:25:28.939Z,1.90
2022-09-06T04:27:55.692Z,1.70
2022-09-06T04:30:22.487Z,1.93
2022-09-06T04:32:51.483Z,2.30
2022-09-06T04:35:20.362Z,2.10
2022-09-06T04:37:51.797Z,2.10
2022-09-06T04:40:18.555Z,1.73
2022-09-06T04:42:50.004Z,1.80
2022-09-06T04:45:16.871Z,2.30
2022-09-06T04:47:43.651Z,2.40
2022-09-06T04:50:11.209Z,1.93
2022-09-06T04:52:37.983Z,1.87
2022-09-06T04:55:05.475Z,2.07
2022-09-06T04:57:32.261Z,1.60
2022-09-06T05:00:01.411Z,2.20
2022-09-06T05:02:28.247Z,2.00
2022-09-06T05:04:57.541Z,1.87
2022-09-06T05:07:24.525Z,2.20
2022-09-06T05:09:53.520Z,2.20
2022-09-06T05:12:22.718Z,1.93
2022-09-06T05:14:49.458Z,1.97
2022-09-06T05:17:18.462Z,2.07
2022-09-06T05:19:48.467Z,2.07
2022-09-06T05:22:15.203Z,2.30
2022-09-06T05:24:41.979Z,2.00
2022-09-06T05:27:08.969Z,2.23
2022-09-06T05:29:38.412Z,2.03
2022-09-06T05:32:05.282Z,1.90
2022-09-06T05:34:34.339Z,2.00
2022-09-06T05:37:03.614Z,1.70
2022-09-06T05:39:35.039Z,2.13
2022-09-06T05:42:07.418Z,2.10
2022-09-06T05:44:34.887Z,2.00
2022-09-06T05:47:03.819Z,1.70
2022-09-06T05:49:30.929Z,1.70
2022-09-06T05:51:57.861Z,2.03
2022-09-06T05:54:24.666Z,1.43
2022-09-06T05:56:51.586Z,1.93
2022-09-06T05:59:20.489Z,1.73
2022-09-06T06:01:53.073Z,2.00
2022-09-06T06:04:19.997Z,1.80
2022-09-06T06:06:48.068Z,1.80
2022-09-06T06:09:14.884Z,1.83
2022-09-06T06:11:42.140Z,2.00
2022-09-06T06:14:09.158Z,1.73
2022-09-06T06:16:36.031Z,1.60
2022-09-06T06:19:02.812Z,1.50
2022-09-06T06:21:32.730Z,1.50
2022-09-06T06:24:05.281Z,1.83
2022-09-06T06:26:33.878Z,1.70
2022-09-06T06:29:03.477Z,1.80
2022-09-06T06:31:31.023Z,1.50
2022-09-06T06:33:58.378Z,1.50
2022-09-06T06:36:30.944Z,1.80
2022-09-06T06:38:58.202Z,1.70
2022-09-06T06:41:28.844Z,1.80
2022-09-06T06:43:57.800Z,1.57
2022-09-06T06:46:26.203Z,1.50
2022-09-06T06:48:55.483Z,1.33
2022-09-06T06:51:26.896Z,1.43
2022-09-06T06:53:56.863Z,1.30
2022-09-06T06:56:28.399Z,1.43
2022-09-06T06:58:59.062Z,1.77
2022-09-06T07:01:27.039Z,1.63
2022-09-06T07:03:56.146Z,1.63
2022-09-06T07:09:14.595Z,1.30
2022-09-06T07:11:41.343Z,1.20
2022-09-06T07:14:08.940Z,1.30
2022-09-06T07:16:35.817Z,1.57
2022-09-06T07:19:04.974Z,1.30
2022-09-06T07:21:38.950Z,1.30
2022-09-06T07:24:08.587Z,1.50
2022-09-06T07:26:36.690Z,1.00
2022-09-06T07:29:07.385Z,1.50
2022-09-06T07:34:26.357Z,1.33
2022-09-06T07:36:58.985Z,1.50
2022-09-06T07:39:28.052Z,1.43
2022-09-06T07:41:54.839Z,1.50
2022-09-06T07:44:21.634Z,1.20
2022-09-06T07:46:52.630Z,1.30
2022-09-06T07:49:19.628Z,1.53
2022-09-06T07:51:49.536Z,1.93
2022-09-06T07:54:34.085Z,1.27
2022-09-06T07:57:00.829Z,1.77
2022-09-06T07:59:27.696Z,1.30
2022-09-06T08:01:54.571Z,1.20
2022-09-06T08:04:23.541Z,1.10
2022-09-06T08:09:46.873Z,0.90
2022-09-06T08:12:13.667Z,1.10
2022-09-06T08:14:40.381Z,0.97
2022-09-06T08:17:11.805Z,1.10
2022-09-06T08:19:40.695Z,1.20
2022-09-06T08:22:12.696Z,1.40
2022-09-06T08:24:39.495Z,0.70
2022-09-06T08:27:07.903Z,1.10
2022-09-06T08:29:37.144Z,1.20
2022-09-06T08:32:04.291Z,0.90
2022-09-06T08:34:33.300Z,0.87
2022-09-06T08:37:00.038Z,0.63
2022-09-06T08:39:26.913Z,0.90
2022-09-06T08:42:07.191Z,1.10
2022-09-06T08:47:20.070Z,0.80
2022-09-06T08:50:01.633Z,0.80
2022-09-06T08:53:00.129Z,0.70
2022-09-06T08:56:05.749Z,0.80
2022-09-06T08:58:45.840Z,0.77
2022-09-06T09:01:27.701Z,0.87
2022-09-06T09:03:57.129Z,1.00
2022-09-06T09:06:26.399Z,0.90
2022-09-06T09:08:55.319Z,0.80
2022-09-06T09:11:25.667Z,0.70
2022-09-06T09:14:06.246Z,0.90
2022-09-06T09:16:33.212Z,0.80
2022-09-06T09:19:02.069Z,0.67
2022-09-06T09:21:30.941Z,1.00
2022-09-06T09:24:02.007Z,0.87
2022-09-06T09:26:31.037Z,0.70
2022-09-06T09:29:12.710Z,0.80
2022-09-06T09:31:41.789Z,0.70
2022-09-06T09:34:12.975Z,1.20
2022-09-06T09:39:35.850Z,1.17
2022-09-06T09:42:02.756Z,0.70
2022-09-06T09:44:29.973Z,0.73
2022-09-06T09:46:56.853Z,1.00
2022-09-06T09:49:26.485Z,0.80
2022-09-06T09:52:15.050Z,0.93
2022-09-06T09:54:45.464Z,0.90
2022-09-06T09:57:18.041Z,0.70
2022-09-06T09:59:46.860Z,0.90
2022-09-06T10:02:30.298Z,0.70
2022-09-06T10:05:18.021Z,0.90
2022-09-06T10:07:47.380Z,0.90
2022-09-06T10:10:15.467Z,0.70
2022-09-06T10:12:46.981Z,0.80
2022-09-06T10:15:35.541Z,0.93
2022-09-06T10:18:02.338Z,0.97
2022-09-06T10:21:09.718Z,0.97
2022-09-06T10:26:43.823Z,0.80
2022-09-06T10:29:10.562Z,1.00
2022-09-06T10:31:52.477Z,0.70
2022-09-06T10:34:43.767Z,1.00
2022-09-06T10:37:36.449Z,1.30
2022-09-06T10:40:07.905Z,1.20
2022-09-06T10:42:53.962Z,0.80
2022-09-06T10:45:58.432Z,0.97
2022-09-06T10:48:30.925Z,1.20
2022-09-06T10:51:21.300Z,1.00
2022-09-06T10:54:07.896Z,1.00
2022-09-06T10:56:45.441Z,0.90
2022-09-06T11:02:10.806Z,0.97
2022-09-06T11:07:36.776Z,0.90
2022-09-06T11:10:18.762Z,0.97
2022-09-06T11:12:46.769Z,0.80
2022-09-06T11:15:14.083Z,0.90
2022-09-06T11:17:46.867Z,0.80
2022-09-06T11:20:18.743Z,1.00
2022-09-06T11:22:50.542Z,1.00
2022-09-06T11:25:23.472Z,1.05
2022-09-06T11:27:58.113Z,1.23
2022-09-06T11:30:25.722Z,0.90
2022-09-06T11:33:05.658Z,0.90
2022-09-06T11:35:36.139Z,1.02
2022-09-06T11:38:04.632Z,0.90
2022-09-06T11:40:38.795Z,1.10
2022-09-06T11:43:05.485Z,1.00
2022-09-06T11:45:44.887Z,1.00
2022-09-06T11:48:23.667Z,0.85
2022-09-06T11:50:59.334Z,0.90
2022-09-06T11:53:27.683Z,0.98
2022-09-06T11:56:00.576Z,0.93
2022-09-06T11:58:34.954Z,0.70
2022-09-06T12:01:14.024Z,1.38
2022-09-06T12:06:41.789Z,0.80
2022-09-06T12:09:27.285Z,0.90
2022-09-06T12:11:56.681Z,0.80
2022-09-06T12:14:32.751Z,1.08
2022-09-06T12:17:02.107Z,0.80
2022-09-06T12:19:48.004Z,0.90
2022-09-06T12:22:26.816Z,0.90
2022-09-06T12:25:15.540Z,0.90
2022-09-06T12:27:56.109Z,0.70
2022-09-06T12:30:37.079Z,0.90
2022-09-06T12:33:12.904Z,0.88
2022-09-06T12:36:02.289Z,0.70
2022-09-06T12:38:32.186Z,0.70
2022-09-06T12:41:01.194Z,0.73
2022-09-06T12:43:36.339Z,0.70
2022-09-06T12:46:05.079Z,0.90
2022-09-06T12:48:33.623Z,1.02
2022-09-06T12:51:05.010Z,0.88
2022-09-06T12:53:31.944Z,0.85
2022-09-06T12:56:06.358Z,0.70
2022-09-06T12:58:35.541Z,0.63
2022-09-06T13:01:10.932Z,0.85
2022-09-06T13:03:56.156Z,0.80
2022-09-06T13:06:27.361Z,0.80
2022-09-06T13:08:58.175Z,0.70
2022-09-06T13:11:31.566Z,0.88
2022-09-06T13:14:00.477Z,0.77
2022-09-06T13:16:31.243Z,1.02
2022-09-06T13:19:12.109Z,0.80
2022-09-06T13:21:39.591Z,0.80
2022-09-06T13:24:19.658Z,0.80
2022-09-06T13:26:46.483Z,1.10
2022-09-06T13:29:26.275Z,0.95
2022-09-06T13:31:58.617Z,0.90
2022-09-06T13:34:25.962Z,0.80
2022-09-06T13:37:06.351Z,1.00
2022-09-06T13:39:34.193Z,0.90
2022-09-06T13:42:08.933Z,0.80
2022-09-06T13:44:37.021Z,0.70
2022-09-06T13:47:04.148Z,0.70
2022-09-06T13:49:33.880Z,0.80
2022-09-06T13:52:03.547Z,1.17
2022-09-06T13:54:42.510Z,0.90
2022-09-06T13:57:13.912Z,0.80
2022-09-06T13:59:43.175Z,0.82
2022-09-06T14:02:12.974Z,0.60
2022-09-06T14:04:40.284Z,0.63
2022-09-06T14:07:07.487Z,0.80
2022-09-06T14:09:34.304Z,0.73
2022-09-06T14:12:01.073Z,0.60
2022-09-06T14:14:32.498Z,0.80
2022-09-06T14:17:01.660Z,0.70
2022-09-06T14:19:31.030Z,0.75
2022-09-06T14:22:04.938Z,0.75
2022-09-06T14:24:32.767Z,0.60
2022-09-06T14:26:59.524Z,0.77
2022-09-06T14:29:28.874Z,0.65
2022-09-06T14:31:55.622Z,0.80
2022-09-06T14:34:25.846Z,0.70
2022-09-06T14:36:54.747Z,0.90
2022-09-06T14:39:21.504Z,0.70
2022-09-06T14:41:48.312Z,0.70
2022-09-06T14:44:15.100Z,0.67
2022-09-06T14:46:41.921Z,0.70
2022-09-06T14:49:11.259Z,0.80
2022-09-06T14:51:40.776Z,0.70
2022-09-06T14:54:11.673Z,0.70
2022-09-06T14:56:41.364Z,0.70
2022-09-06T14:59:09.230Z,1.00
2022-09-06T15:01:38.550Z,0.60
2022-09-06T15:04:09.271Z,0.63
2022-09-06T15:06:37.018Z,0.70
2022-09-06T15:09:04.615Z,0.67
2022-09-06T15:11:34.470Z,0.70
2022-09-06T15:14:09.558Z,0.60
2022-09-06T15:16:36.391Z,0.90
2022-09-06T15:19:05.302Z,0.90
2022-09-06T15:21:34.639Z,0.80
2022-09-06T15:24:04.980Z,0.70
2022-09-06T15:26:34.854Z,1.00
2022-09-06T15:29:03.956Z,0.80
2022-09-06T15:31:32.387Z,0.70
2022-09-06T15:34:05.344Z,0.60
2022-09-06T15:36:35.015Z,0.90
2022-09-06T15:39:05.056Z,0.77
2022-09-06T15:41:33.312Z,2.10
2022-09-06T15:44:01.510Z,0.70
2022-09-06T15:46:50.758Z,1.00
2022-09-06T15:49:37.859Z,0.80
2022-09-06T15:52:06.256Z,0.90
2022-09-06T15:54:54.500Z,0.60
2022-09-06T15:57:21.316Z,0.77
2022-09-06T15:59:48.102Z,0.80
2022-09-06T16:02:17.448Z,0.70
2022-09-06T16:04:45.116Z,0.80
2022-09-06T16:07:14.064Z,0.70
2022-09-06T16:09:40.806Z,0.60
2022-09-06T16:12:07.824Z,0.70
2022-09-06T16:14:35.014Z,1.00
2022-09-06T16:17:01.807Z,0.80
2022-09-06T16:19:28.913Z,0.90
2022-09-06T16:21:56.008Z,0.80
2022-09-06T16:24:25.290Z,0.83
2022-09-06T16:26:52.242Z,0.80
2022-09-06T16:29:20.327Z,0.90
2022-09-06T16:31:47.708Z,0.70
2022-09-06T16:34:19.178Z,0.63
2022-09-06T16:36:50.162Z,0.63
2022-09-06T16:39:16.914Z,0.80
2022-09-06T16:41:44.961Z,0.83
2022-09-06T16:44:16.570Z,1.47
2022-09-06T16:46:45.043Z,0.97
2022-09-06T16:49:16.964Z,1.00
2022-09-06T16:51:46.565Z,1.03
2022-09-06T16:54:14.601Z,0.83
2022-09-06T16:56:41.788Z,0.70
2022-09-06T16:59:11.980Z,0.80
2022-09-06T17:01:41.926Z,0.90
2022-09-06T17:04:09.942Z,0.80
2022-09-06T17:06:44.023Z,1.13
2022-09-06T17:09:12.955Z,1.03
2022-09-06T17:11:40.344Z,0.97
2022-09-06T17:14:09.316Z,1.00
2022-09-06T17:16:54.841Z,0.80
2022-09-06T17:19:36.552Z,0.90
2022-09-06T17:22:13.267Z,0.80
2022-09-06T17:24:40.735Z,1.20
2022-09-06T17:27:07.789Z,0.93
2022-09-06T17:29:37.272Z,1.37
2022-09-06T17:32:10.489Z,1.30
2022-09-06T17:34:38.655Z,1.30
2022-09-06T17:37:05.689Z,1.20
2022-09-06T17:39:32.540Z,1.80
2022-09-06T17:41:59.700Z,1.47
2022-09-06T17:44:29.142Z,1.40
2022-09-06T17:47:11.997Z,1.20
2022-09-06T17:49:40.050Z,1.40
2022-09-06T17:52:06.798Z,1.40
2022-09-06T17:54:33.726Z,1.23
2022-09-06T17:57:02.972Z,1.80
2022-09-06T17:59:35.517Z,1.70
2022-09-06T18:02:03.025Z,2.13
2022-09-06T18:04:29.858Z,1.50
2022-09-06T18:06:56.774Z,1.40
2022-09-06T18:09:25.927Z,1.10
2022-09-06T18:11:52.819Z,1.30
2022-09-06T18:14:21.916Z,1.20
2022-09-06T18:16:51.639Z,1.40
2022-09-06T18:19:18.950Z,1.20
2022-09-06T18:21:48.796Z,1.80
2022-09-06T18:24:16.204Z,1.70
2022-09-06T18:26:45.107Z,1.60
2022-09-06T18:29:14.696Z,1.80
2022-09-06T18:31:41.643Z,1.63
2022-09-06T18:34:08.927Z,1.80
2022-09-06T18:36:38.809Z,1.70
2022-09-06T18:39:11.309Z,1.90
2022-09-06T18:41:56.547Z,1.87
2022-09-06T18:44:32.906Z,2.13
2022-09-06T18:47:07.700Z,2.00
2022-09-06T18:49:34.818Z,1.87
2022-09-06T18:52:05.061Z,2.07
2022-09-06T18:54:32.205Z,1.73
2022-09-06T18:56:59.323Z,1.87
2022-09-06T18:59:26.196Z,2.17
2022-09-06T19:01:53.180Z,1.90
2022-09-06T19:04:20.075Z,2.10
2022-09-06T19:06:47.103Z,1.90
2022-09-06T19:09:15.959Z,2.17
2022-09-06T19:11:45.710Z,2.50
2022-09-06T19:14:12.911Z,2.17
2022-09-06T19:16:40.174Z,2.33
2022-09-06T19:19:10.226Z,2.43
2022-09-06T19:21:41.656Z,2.20
2022-09-06T19:24:10.366Z,2.63
2022-09-06T19:26:41.575Z,2.70
2022-09-06T19:29:14.600Z,2.80
2022-09-06T19:31:41.451Z,2.50
2022-09-06T19:34:08.414Z,2.63
2022-09-06T19:36:35.239Z,2.50
2022-09-06T19:39:05.519Z,3.07
2022-09-06T19:41:34.278Z,2.40
2022-09-06T19:44:01.746Z,2.60
2022-09-06T19:46:28.574Z,2.50
2022-09-06T19:48:58.522Z,2.30
2022-09-06T19:51:27.728Z,2.33
2022-09-06T19:53:58.125Z,2.37
2022-09-06T19:56:34.251Z,2.10
2022-09-06T19:59:02.526Z,2.10
2022-09-06T20:01:31.202Z,2.00
2022-09-06T20:03:58.780Z,2.30
2022-09-06T20:06:27.921Z,2.40
2022-09-06T20:08:56.252Z,2.10
2022-09-06T20:11:24.539Z,1.90
2022-09-06T20:13:51.333Z,2.23
2022-09-06T20:16:20.590Z,2.00
2022-09-06T20:18:48.376Z,2.27
2022-09-06T20:21:15.243Z,2.37
2022-09-06T20:23:42.236Z,2.33
2022-09-06T20:26:18.534Z,2.60
2022-09-06T20:28:51.028Z,2.27
2022-09-06T20:31:18.330Z,2.07
2022-09-06T20:33:49.497Z,1.80
2022-09-06T20:36:16.917Z,2.10
2022-09-06T20:38:44.145Z,2.20
2022-09-06T20:41:13.300Z,2.20
2022-09-06T20:43:45.407Z,2.00
2022-09-06T20:46:14.391Z,2.10
2022-09-06T20:48:44.716Z,2.00
2022-09-06T20:51:13.882Z,2.07
2022-09-06T20:53:45.360Z,1.80
2022-09-06T20:56:17.102Z,1.93
2022-09-06T20:58:50.764Z,2.20
2022-09-06T21:01:22.790Z,1.93
2022-09-06T21:03:51.740Z,1.83
2022-09-06T21:06:21.588Z,1.90
2022-09-06T21:08:53.218Z,2.13
2022-09-06T21:11:22.482Z,1.90
2022-09-06T21:13:55.946Z,1.80
2022-09-06T21:16:27.194Z,2.40
2022-09-06T21:18:58.622Z,2.40
2022-09-06T21:21:26.028Z,2.90
2022-09-06T21:23:55.072Z,2.40
2022-09-06T21:26:22.441Z,3.40
2022-09-06T21:28:49.471Z,3.67
2022-09-06T21:31:23.612Z,4.30
2022-09-06T21:33:52.735Z,4.17
2022-09-06T21:36:24.178Z,4.20
2022-09-06T21:38:55.465Z,4.20
2022-09-06T21:41:22.434Z,4.07
2022-09-06T21:43:56.506Z,4.33
2022-09-06T21:46:27.800Z,4.17
2022-09-06T21:48:57.263Z,3.50
2022-09-06T21:51:29.665Z,3.80
2022-09-06T21:54:03.540Z,3.27
2022-09-06T21:56:30.779Z,3.53
2022-09-06T21:58:58.071Z,3.50
2022-09-06T22:01:29.056Z,3.50
2022-09-06T22:03:56.097Z,3.50
2022-09-06T22:06:28.917Z,3.37
2022-09-06T22:08:57.610Z,3.30
2022-09-06T22:11:26.243Z,3.43
2022-09-06T22:13:53.401Z,3.90
2022-09-06T22:16:21.969Z,3.63
2022-09-06T22:18:51.599Z,4.13
2022-09-06T22:21:23.081Z,3.20
2022-09-06T22:23:59.565Z,3.70
2022-09-06T22:26:30.323Z,3.73
2022-09-06T22:29:01.576Z,3.63
2022-09-06T22:31:31.952Z,3.90
2022-09-06T22:33:59.083Z,3.23
2022-09-06T22:36:26.242Z,3.70
2022-09-06T22:38:57.215Z,4.30
2022-09-06T22:41:28.663Z,3.80
2022-09-06T22:43:56.138Z,4.60
2022-09-06T22:46:23.227Z,4.07
2022-09-06T22:48:50.241Z,3.97
2022-09-06T22:51:17.181Z,3.97
2022-09-06T22:53:44.130Z,4.07
2022-09-06T22:56:11.082Z,4.23
2022-09-06T22:58:40.209Z,4.23
2022-09-06T23:01:12.535Z,4.30
2022-09-06T23:03:42.316Z,4.83
2022-09-06T23:06:12.023Z,4.03
2022-09-06T23:08:39.596Z,4.57
2022-09-06T23:11:12.574Z,4.20
2022-09-06T23:13:43.498Z,4.33
2022-09-06T23:16:15.577Z,3.93
2022-09-06T23:18:44.755Z,4.00
2022-09-06T23:21:18.493Z,4.30
2022-09-06T23:23:45.879Z,4.43
2022-09-06T23:26:16.514Z,3.83
2022-09-06T23:28:43.694Z,4.47
2022-09-06T23:31:14.673Z,4.50
2022-09-06T23:33:41.995Z,4.43
2022-09-06T23:36:13.068Z,4.03
2022-09-06T23:38:42.932Z,4.20
2022-09-06T23:41:13.421Z,4.53
2022-09-06T23:43:41.121Z,3.90
2022-09-06T23:46:11.492Z,4.17
2022-09-06T23:48:41.165Z,4.37
2022-09-06T23:51:08.270Z,3.97
2022-09-06T23:53:35.314Z,3.77
2022-09-06T23:56:03.038Z,4.33
2022-09-06T23:58:32.922Z,4.10
